Jack Mc Namara Field Airport
KCEC : rendu visible

Aérodrome :











RETROUVEZ-NOUS SUR...

 
LOGIN :

S'inscrire | Disclaimer

   EN    FR    IT 

 









Légende :    VFR   VFR Marginal   IFR   IFR Intensif   IFR Très Intensif
Visi : 
Plafond : 
>= 8 km
>= 3000ft
5 à 8 km
1000 à 3000 ft
1500m à 5 km
500 à 1000 ft
800 à 1500m
200 à 500 ft
< 800m
< 200 ft
Symboles :   Orages  Brouillard  Fortes neiges  Fortes précipitations  Vent > 20 kt






- Altitude de l'aérodrome : 61 ft
- Code IATA : CEC


KCEC - Jack Mc Namara Field

DERNIER METAR :
  • 171156Z AUTO 10007KT 4SM BR SCT004 08/08 A3020 RMK AO2 SLP226 T00780078 10094 20067 50002

METARs EXPIRÉS :
  • 171146Z AUTO 10005KT 2 1/2SM BR BKN004 08/08 A3020 RMK AO2 T00830083
  • 171129Z AUTO 08004KT 1 1/2SM BR OVC004 08/08 A3020 RMK AO2 T00780078
  • 171056Z AUTO 00000KT 1/4SM FG VV004 08/08 A3020 RMK AO2 SLP227 T00780078
  • 171035Z AUTO 00000KT 3/4SM BR VV004 07/07 A3019 RMK AO2 T00720072
  • 171024Z AUTO 00000KT 1 1/4SM BR BKN004 07/07 A3019 RMK AO2 T00720072
  • 171014Z AUTO 00000KT 1 3/4SM BR BKN004 07/07 A3019 RMK AO2 T00720072
  • 170956Z AUTO 00000KT 3/4SM BR VV004 08/07 A3019 RMK AO2 SLP224 T00780072
  • 170930Z AUTO 00000KT 5SM BR CLR 08/07 A3019 RMK AO2 T00780072

TAF KCEC
Valide du 17 à 12h jusqu'au 18 à 12h UTC


171139Z 1712/1812 VRB03KT 1SM BR OVC004
TEMPO 1712/1715 1/4SM FG BKN004
FM171900 34006KT 6SM BR SCT005
FM180500 VRB03KT 3SM BR BKN004
FM180900 VRB03KT 1SM BR OVC003



MET'MAP, la Météo Aéronautique d'un coup d'oeil ! - Copyright ORBIFLY Décembre 2007 - Disclaimer

ORBIFLY MET'MAP TEAM :

Programmation & Développement : Alexandra Zaïnal
Conception & Développement : Baudouin d'Aumeries
Co-Programmation & Développement : Marc-Olivier Méhu
Soutien technique & logistique : Manuel Goepfert

Contact : metmap@orbifly.com




SOURCES & CREDITS :

   NOAA       Earth
Advisory